createdAt,value
2023-01-07T00:01:32.572Z,100844.90
2023-01-07T00:04:01.988Z,100847.63
2023-01-07T00:06:33.639Z,100853.83
2023-01-07T00:09:02.818Z,100861.91
2023-01-07T00:11:36.921Z,100856.10
2023-01-07T00:14:07.504Z,100861.70
2023-01-07T00:16:36.661Z,100865.05
2023-01-07T00:19:07.151Z,100866.83
2023-01-07T00:21:35.063Z,100859.27
2023-01-07T00:24:08.306Z,100872.08
2023-01-07T00:26:37.994Z,100874.02
2023-01-07T00:29:07.275Z,100876.80
2023-01-07T00:31:38.794Z,100876.63
2023-01-07T00:34:08.816Z,100880.34
2023-01-07T00:36:45.547Z,100880.88
2023-01-07T00:39:19.544Z,100887.00
2023-01-07T00:42:08.188Z,100890.52
2023-01-07T00:44:38.033Z,100889.84
2023-01-07T00:47:06.635Z,100876.96
2023-01-07T00:49:34.763Z,100879.81
2023-01-07T00:52:02.724Z,100892.80
2023-01-07T00:54:30.878Z,100880.58
2023-01-07T00:56:58.939Z,100911.44
2023-01-07T00:59:27.248Z,100910.28
2023-01-07T01:01:55.423Z,100909.48
2023-01-07T01:04:25.849Z,100903.82
2023-01-07T01:06:53.787Z,100906.11
2023-01-07T01:09:22.462Z,100913.67
2023-01-07T01:11:50.478Z,100909.73
2023-01-07T01:14:18.389Z,100905.59
2023-01-07T01:16:46.798Z,100900.95
2023-01-07T01:19:15.410Z,100903.84
2023-01-07T01:21:43.448Z,100901.98
2023-01-07T01:24:11.562Z,100904.33
2023-01-07T01:26:39.812Z,100903.71
2023-01-07T01:29:07.896Z,100904.30
2023-01-07T01:31:35.977Z,100903.00
2023-01-07T01:34:04.864Z,100905.36
2023-01-07T01:36:33.090Z,100909.66
2023-01-07T01:39:01.391Z,100908.54
2023-01-07T01:41:32.246Z,100911.92
2023-01-07T01:44:00.784Z,100911.52
2023-01-07T01:46:37.088Z,100916.66
2023-01-07T01:49:23.772Z,100917.30
2023-01-07T01:52:09.128Z,100920.00
2023-01-07T01:54:39.359Z,100917.34
2023-01-07T01:57:09.090Z,100917.48
2023-01-07T01:59:42.403Z,100917.95
2023-01-07T02:02:12.863Z,100914.93
2023-01-07T02:04:41.668Z,100913.49
2023-01-07T02:07:17.927Z,100911.19
2023-01-07T02:10:15.764Z,100916.55
2023-01-07T02:13:21.772Z,100898.17
2023-01-07T02:16:05.674Z,100912.81
2023-01-07T02:18:40.518Z,100910.91
2023-01-07T02:21:17.996Z,100908.16
2023-01-07T02:24:11.723Z,100891.73
2023-01-07T02:26:51.557Z,100904.55
2023-01-07T02:29:42.104Z,100904.23
2023-01-07T02:32:36.385Z,100902.85
2023-01-07T02:35:30.544Z,100903.23
2023-01-07T02:38:16.654Z,100900.86
2023-01-07T02:40:55.055Z,100902.81
2023-01-07T02:44:02.018Z,100902.52
2023-01-07T02:47:05.454Z,100891.52
2023-01-07T02:49:35.160Z,100900.46
2023-01-07T02:52:23.077Z,100900.50
2023-01-07T02:55:09.286Z,100897.95
2023-01-07T02:57:59.423Z,100914.60
2023-01-07T03:00:40.897Z,100909.50
2023-01-07T03:03:22.165Z,100913.61
2023-01-07T03:05:59.410Z,100915.23
2023-01-07T03:08:36.745Z,100921.43
2023-01-07T03:11:07.945Z,100920.11
2023-01-07T03:13:41.786Z,100922.11
2023-01-07T03:16:22.889Z,100921.14
2023-01-07T03:19:07.085Z,100925.59
2023-01-07T03:21:37.264Z,100925.80
2023-01-07T03:24:07.995Z,100918.73
2023-01-07T03:26:51.198Z,100918.66
2023-01-07T03:29:20.956Z,100922.48
2023-01-07T03:31:59.588Z,100930.16
2023-01-07T03:34:29.470Z,100927.02
2023-01-07T03:37:03.905Z,100927.59
2023-01-07T03:39:36.432Z,100927.63
2023-01-07T03:42:27.058Z,100919.89
2023-01-07T03:44:55.180Z,100922.87
2023-01-07T03:47:25.337Z,100915.67
2023-01-07T03:49:53.385Z,100913.43
2023-01-07T03:52:21.529Z,100914.79
2023-01-07T03:54:49.591Z,100915.46
2023-01-07T03:57:18.667Z,100918.03
2023-01-07T03:59:46.826Z,100919.23
2023-01-07T04:02:15.328Z,100920.09
2023-01-07T04:04:43.833Z,100922.67
2023-01-07T04:07:11.771Z,100920.19
2023-01-07T04:09:40.030Z,100915.80
2023-01-07T04:12:08.940Z,100913.84
2023-01-07T04:14:37.027Z,100917.50
2023-01-07T04:17:04.975Z,100917.83
2023-01-07T04:19:33.776Z,100917.00
2023-01-07T04:22:01.959Z,100917.46
2023-01-07T04:24:32.026Z,100908.65
2023-01-07T04:27:00.077Z,100904.44
2023-01-07T04:29:28.328Z,100905.08
2023-01-07T04:31:56.709Z,100909.17
2023-01-07T04:34:25.289Z,100914.15
2023-01-07T04:36:53.818Z,100911.30
2023-01-07T04:39:21.751Z,100915.27
2023-01-07T04:41:49.724Z,100921.30
2023-01-07T04:44:17.929Z,100923.80
2023-01-07T04:46:45.887Z,100924.53
2023-01-07T04:49:14.016Z,100932.75
2023-01-07T04:51:42.495Z,100931.20
2023-01-07T04:54:10.788Z,100927.74
2023-01-07T04:56:39.044Z,100928.29
2023-01-07T04:59:07.170Z,100927.11
2023-01-07T05:01:35.242Z,100932.01
2023-01-07T05:04:03.680Z,100933.95
2023-01-07T05:06:32.431Z,100936.42
2023-01-07T05:09:01.116Z,100938.02
2023-01-07T05:11:30.061Z,100944.77
2023-01-07T05:14:00.752Z,100949.79
2023-01-07T05:16:29.845Z,100947.99
2023-01-07T05:18:59.802Z,100949.96
2023-01-07T05:21:28.046Z,100952.58
2023-01-07T05:23:56.263Z,100957.79
2023-01-07T05:26:24.457Z,100956.64
2023-01-07T05:28:53.366Z,100956.03
2023-01-07T05:31:21.399Z,100959.11
2023-01-07T05:33:49.653Z,100955.24
2023-01-07T05:36:17.617Z,100956.57
2023-01-07T05:38:45.813Z,100961.00
2023-01-07T05:41:14.211Z,100960.61
2023-01-07T05:43:42.103Z,100965.06
2023-01-07T05:46:10.183Z,100964.61
2023-01-07T05:48:38.520Z,100968.56
2023-01-07T05:51:06.534Z,100971.31
2023-01-07T05:53:34.524Z,100968.47
2023-01-07T05:56:02.679Z,100961.59
2023-01-07T05:58:30.783Z,100967.50
2023-01-07T06:00:58.710Z,100966.39
2023-01-07T06:03:26.876Z,100968.73
2023-01-07T06:05:55.036Z,100967.63
2023-01-07T06:08:22.909Z,100968.44
2023-01-07T06:10:51.024Z,100970.27
2023-01-07T06:13:19.043Z,100970.35
2023-01-07T06:15:46.983Z,100966.60
2023-01-07T06:18:15.013Z,100971.02
2023-01-07T06:20:43.024Z,100969.84
2023-01-07T06:23:10.980Z,100972.05
2023-01-07T06:25:39.091Z,100981.77
2023-01-07T06:28:07.065Z,100984.48
2023-01-07T06:30:34.921Z,100984.41
2023-01-07T06:33:03.092Z,100982.77
2023-01-07T06:35:32.113Z,100984.42
2023-01-07T06:38:02.971Z,100988.73
2023-01-07T06:40:31.429Z,100994.04
2023-01-07T06:42:59.419Z,100997.09
2023-01-07T06:45:27.808Z,101000.84
2023-01-07T06:47:57.670Z,101001.25
2023-01-07T06:50:26.061Z,101002.50
2023-01-07T06:52:54.190Z,101006.80
2023-01-07T06:55:22.520Z,101012.63
2023-01-07T06:57:50.425Z,101022.32
2023-01-07T07:00:18.434Z,101031.08
2023-01-07T07:02:46.688Z,101032.86
2023-01-07T07:05:15.094Z,101035.52
2023-01-07T07:07:42.967Z,101037.61
2023-01-07T07:10:11.845Z,101040.05
2023-01-07T07:12:40.499Z,101045.31
2023-01-07T07:15:09.342Z,101048.30
2023-01-07T07:17:37.409Z,101045.55
2023-01-07T07:20:06.193Z,101044.91
2023-01-07T07:22:34.097Z,101046.71
2023-01-07T07:25:02.126Z,101040.64
2023-01-07T07:27:30.176Z,101033.73
2023-01-07T07:29:58.026Z,101026.15
2023-01-07T07:32:28.670Z,101037.55
2023-01-07T07:34:57.000Z,101036.89
2023-01-07T07:37:24.876Z,101043.63
2023-01-07T07:39:53.229Z,101053.46
2023-01-07T07:42:21.117Z,101047.62
2023-01-07T07:44:50.391Z,101057.65
2023-01-07T07:47:19.155Z,101060.67
2023-01-07T07:49:47.034Z,101060.02
2023-01-07T07:52:15.049Z,101060.08
2023-01-07T07:54:43.040Z,101062.55
2023-01-07T07:57:10.966Z,101065.59
2023-01-07T07:59:38.990Z,101066.71
2023-01-07T08:02:12.611Z,101067.30
2023-01-07T08:04:40.610Z,101065.96
2023-01-07T08:07:11.570Z,101062.34
2023-01-07T08:09:39.704Z,101066.23
2023-01-07T08:12:07.717Z,101060.00
2023-01-07T08:14:36.744Z,101061.79
2023-01-07T08:17:04.904Z,101064.63
2023-01-07T08:19:32.830Z,101063.98
2023-01-07T08:22:00.821Z,101062.34
2023-01-07T08:24:28.764Z,101060.84
2023-01-07T08:26:56.920Z,101064.06
2023-01-07T08:29:24.891Z,101064.88
2023-01-07T08:31:52.775Z,101043.14
2023-01-07T08:34:20.905Z,101063.31
2023-01-07T08:36:48.745Z,101065.67
2023-01-07T08:39:16.784Z,101061.00
2023-01-07T08:41:44.694Z,101057.93
2023-01-07T08:44:12.797Z,101060.09
2023-01-07T08:46:42.019Z,101061.70
2023-01-07T08:49:11.217Z,101060.03
2023-01-07T08:51:39.080Z,101062.70
2023-01-07T08:54:07.127Z,101064.14
2023-01-07T08:56:35.203Z,101068.37
2023-01-07T08:59:03.241Z,101071.02
2023-01-07T09:01:31.388Z,101072.45
2023-01-07T09:03:59.390Z,101069.52
2023-01-07T09:06:27.240Z,101069.42
2023-01-07T09:08:55.319Z,101069.87
2023-01-07T09:11:23.656Z,101069.95
2023-01-07T09:13:51.676Z,101066.60
2023-01-07T09:16:19.841Z,101063.26
2023-01-07T09:18:47.778Z,101063.08
2023-01-07T09:21:15.741Z,101070.23
2023-01-07T09:23:43.995Z,101068.44
2023-01-07T09:26:11.874Z,101064.88
2023-01-07T09:28:39.719Z,101062.41
2023-01-07T09:31:08.193Z,101066.48
2023-01-07T09:33:36.143Z,101073.21
2023-01-07T09:36:04.493Z,101067.71
2023-01-07T09:38:33.368Z,101067.98
2023-01-07T09:41:01.380Z,101064.95
2023-01-07T09:43:59.885Z,101069.77
2023-01-07T09:46:31.002Z,101071.23
2023-01-07T09:49:03.701Z,101071.67
2023-01-07T09:51:38.346Z,101072.27
2023-01-07T09:54:31.632Z,101071.30
2023-01-07T09:56:59.870Z,101073.63
2023-01-07T09:59:27.859Z,101069.17
2023-01-07T10:02:16.766Z,101064.14
2023-01-07T10:05:16.700Z,101066.77
2023-01-07T10:08:29.104Z,101063.50
2023-01-07T10:11:25.260Z,101062.13
2023-01-07T10:14:11.961Z,101056.34
2023-01-07T10:17:01.479Z,101059.26
2023-01-07T10:20:11.396Z,101053.48
2023-01-07T10:22:53.223Z,101051.60
2023-01-07T10:25:34.169Z,101052.86
2023-01-07T10:28:13.738Z,101046.91
2023-01-07T10:30:46.378Z,101033.10
2023-01-07T10:33:19.620Z,101037.58
2023-01-07T10:35:53.467Z,101037.96
2023-01-07T10:38:21.845Z,101037.12
2023-01-07T10:41:02.208Z,101034.91
2023-01-07T10:44:14.719Z,101033.33
2023-01-07T10:47:04.400Z,101027.89
2023-01-07T10:49:48.738Z,101022.25
2023-01-07T10:52:37.898Z,101019.86
2023-01-07T10:55:37.874Z,101019.56
2023-01-07T10:58:11.614Z,101020.63
2023-01-07T11:00:40.563Z,101023.27
2023-01-07T11:03:20.822Z,101020.66
2023-01-07T11:05:59.751Z,101021.72
2023-01-07T11:08:36.999Z,101021.19
2023-01-07T11:11:06.798Z,101018.05
2023-01-07T11:13:39.320Z,101017.89
2023-01-07T11:16:13.742Z,101019.16
2023-01-07T11:18:54.245Z,101012.96
2023-01-07T11:21:47.105Z,101011.92
2023-01-07T11:24:28.417Z,101008.07
2023-01-07T11:27:18.175Z,101005.66
2023-01-07T11:30:00.899Z,101005.36
2023-01-07T11:32:35.709Z,101000.38
2023-01-07T11:35:03.876Z,100999.18
2023-01-07T11:37:39.441Z,100996.98
2023-01-07T11:40:22.489Z,100998.98
2023-01-07T11:43:03.619Z,100996.02
2023-01-07T11:45:36.665Z,100990.98
2023-01-07T11:48:18.943Z,100988.10
2023-01-07T11:50:53.542Z,100987.36
2023-01-07T11:53:33.747Z,100986.58
2023-01-07T11:56:21.333Z,100982.29
2023-01-07T11:58:52.337Z,100977.16
2023-01-07T12:01:23.724Z,100975.58
2023-01-07T12:03:51.768Z,100973.63
2023-01-07T12:06:35.123Z,100973.79
2023-01-07T12:09:13.461Z,100970.95
2023-01-07T12:11:43.934Z,100970.12
2023-01-07T12:14:34.702Z,100967.52
2023-01-07T12:17:17.364Z,100963.69
2023-01-07T12:19:54.241Z,100961.35
2023-01-07T12:22:50.288Z,100953.41
2023-01-07T12:25:37.112Z,100944.82
2023-01-07T12:28:23.242Z,100952.82
2023-01-07T12:30:54.743Z,100954.88
2023-01-07T12:33:44.442Z,100955.52
2023-01-07T12:36:23.558Z,100958.63
2023-01-07T12:38:55.673Z,100959.31
2023-01-07T12:41:29.217Z,100956.77
2023-01-07T12:44:07.571Z,100953.71
2023-01-07T12:47:32.042Z,100951.92
2023-01-07T12:49:57.300Z,100953.74
2023-01-07T12:52:35.438Z,100955.91
2023-01-07T12:55:16.785Z,100953.73
2023-01-07T12:57:52.583Z,100956.21
2023-01-07T13:00:36.664Z,100961.73
2023-01-07T13:03:11.032Z,100956.98
2023-01-07T13:05:59.811Z,100964.73
2023-01-07T13:08:42.872Z,100968.73
2023-01-07T13:11:44.223Z,100965.73
2023-01-07T13:14:41.261Z,100967.98
2023-01-07T13:17:14.222Z,100967.64
2023-01-07T13:19:42.443Z,100952.20
2023-01-07T13:22:17.008Z,100961.71
2023-01-07T13:25:13.632Z,100961.98
2023-01-07T13:28:14.327Z,100962.09
2023-01-07T13:30:42.486Z,100962.58
2023-01-07T13:33:22.942Z,100968.44
2023-01-07T13:36:12.301Z,100974.28
2023-01-07T13:39:07.963Z,100977.33
2023-01-07T13:42:14.332Z,100977.95
2023-01-07T13:45:02.007Z,100980.52
2023-01-07T13:47:46.469Z,100982.78
2023-01-07T13:50:32.741Z,100975.19
2023-01-07T13:53:14.928Z,100979.77
2023-01-07T13:55:45.208Z,100981.54
2023-01-07T13:58:31.230Z,100982.68
2023-01-07T14:01:14.599Z,100984.70
2023-01-07T14:03:58.948Z,100982.34
2023-01-07T14:06:27.039Z,100967.80
2023-01-07T14:08:56.575Z,100980.38
2023-01-07T14:11:30.821Z,100977.89
2023-01-07T14:14:19.265Z,100981.31
2023-01-07T14:17:32.550Z,100980.96
2023-01-07T14:20:52.343Z,100985.82
2023-01-07T14:23:34.170Z,100976.56
2023-01-07T14:26:24.141Z,100996.58
2023-01-07T14:29:13.967Z,100997.66
2023-01-07T14:31:43.204Z,100996.11
2023-01-07T14:34:29.929Z,100998.77
2023-01-07T14:37:09.111Z,101002.39
2023-01-07T14:39:40.088Z,101005.30
2023-01-07T14:42:20.251Z,101003.29
2023-01-07T14:44:54.862Z,100997.05
2023-01-07T14:47:41.400Z,100992.91
2023-01-07T14:50:46.939Z,100993.81
2023-01-07T14:53:47.162Z,100992.79
2023-01-07T14:56:18.123Z,100992.84
2023-01-07T14:59:20.812Z,100987.07
2023-01-07T15:02:26.785Z,100984.98
2023-01-07T15:05:07.954Z,100987.79
2023-01-07T15:07:38.444Z,100988.52
2023-01-07T15:10:45.769Z,100987.85
2023-01-07T15:13:39.632Z,100989.27
2023-01-07T15:16:13.183Z,100993.45
2023-01-07T15:18:49.580Z,100994.23
2023-01-07T15:22:03.525Z,100998.98
2023-01-07T15:24:50.183Z,101001.27
2023-01-07T15:27:29.862Z,101000.06
2023-01-07T15:30:11.910Z,101004.77
2023-01-07T15:32:58.607Z,101000.17
2023-01-07T15:35:35.091Z,101002.81
2023-01-07T15:38:05.263Z,101003.33
2023-01-07T15:40:33.460Z,100990.54
2023-01-07T15:43:01.533Z,100999.13
2023-01-07T15:45:32.295Z,100980.56
2023-01-07T15:48:11.470Z,100994.67
2023-01-07T15:50:45.668Z,100998.45
2023-01-07T15:53:29.161Z,100997.23
2023-01-07T15:56:02.581Z,100997.58
2023-01-07T15:58:47.419Z,100996.02
2023-01-07T16:01:18.668Z,100985.98
2023-01-07T16:03:49.941Z,101002.42
2023-01-07T16:06:34.089Z,101004.83
2023-01-07T16:09:05.167Z,101003.77
2023-01-07T16:11:33.218Z,101004.09
2023-01-07T16:14:04.404Z,101001.27
2023-01-07T16:16:32.825Z,100991.52
2023-01-07T16:19:02.770Z,100990.30
2023-01-07T16:21:39.607Z,100990.11
2023-01-07T16:24:07.841Z,100989.56
2023-01-07T16:26:45.541Z,100987.84
2023-01-07T16:29:26.948Z,100986.86
2023-01-07T16:31:57.148Z,100983.06
2023-01-07T16:34:25.205Z,100979.28
2023-01-07T16:36:58.472Z,100973.91
2023-01-07T16:39:29.306Z,100970.98
2023-01-07T16:42:20.533Z,100969.29
2023-01-07T16:44:49.754Z,100944.69
2023-01-07T16:47:26.240Z,100962.21
2023-01-07T16:49:59.185Z,100955.96
2023-01-07T16:52:33.695Z,100951.98
2023-01-07T16:55:01.684Z,100953.02
2023-01-07T16:57:33.397Z,100953.40
2023-01-07T17:00:04.686Z,100956.89
2023-01-07T17:02:43.231Z,100958.98
2023-01-07T17:05:14.649Z,100959.17
2023-01-07T17:07:55.808Z,100960.89
2023-01-07T17:10:31.592Z,100960.83
2023-01-07T17:13:03.673Z,100957.13
2023-01-07T17:15:31.623Z,100954.66
2023-01-07T17:18:11.754Z,100949.23
2023-01-07T17:20:43.625Z,100945.53
2023-01-07T17:23:27.004Z,100950.23
2023-01-07T17:26:08.725Z,100944.42
2023-01-07T17:29:01.540Z,100944.25
2023-01-07T17:31:29.658Z,100939.23
2023-01-07T17:33:57.737Z,100946.31
2023-01-07T17:36:26.724Z,100950.70
2023-01-07T17:38:54.940Z,100950.17
2023-01-07T17:41:42.952Z,100947.61
2023-01-07T17:44:12.815Z,100948.89
2023-01-07T17:46:42.263Z,100949.80
2023-01-07T17:49:11.649Z,100950.32
2023-01-07T17:51:42.632Z,100947.36
2023-01-07T17:54:19.876Z,100941.96
2023-01-07T17:56:48.502Z,100939.21
2023-01-07T17:59:22.102Z,100936.81
2023-01-07T18:01:52.919Z,100934.40
2023-01-07T18:04:21.679Z,100933.33
2023-01-07T18:06:49.721Z,100936.88
2023-01-07T18:09:17.703Z,100931.98
2023-01-07T18:12:05.725Z,100933.90
2023-01-07T18:14:33.913Z,100932.28
2023-01-07T18:17:01.781Z,100930.67
2023-01-07T18:19:29.768Z,100930.93
2023-01-07T18:21:57.785Z,100935.77
2023-01-07T18:24:26.054Z,100929.67
2023-01-07T18:26:56.356Z,100927.60
2023-01-07T18:29:24.573Z,100924.55
2023-01-07T18:31:52.631Z,100919.27
2023-01-07T18:34:20.902Z,100925.01
2023-01-07T18:36:48.915Z,100923.41
2023-01-07T18:39:20.753Z,100925.49
2023-01-07T18:41:50.346Z,100925.15
2023-01-07T18:44:19.631Z,100925.62
2023-01-07T18:46:47.555Z,100925.64
2023-01-07T18:49:15.869Z,100926.20
2023-01-07T18:51:46.945Z,100924.08
2023-01-07T18:54:15.996Z,100925.07
2023-01-07T18:56:45.926Z,100927.87
2023-01-07T18:59:14.037Z,100925.66
2023-01-07T19:01:42.177Z,100926.58
2023-01-07T19:04:10.588Z,100924.11
2023-01-07T19:06:38.621Z,100918.90
2023-01-07T19:09:06.717Z,100915.62
2023-01-07T19:11:34.856Z,100913.59
2023-01-07T19:14:02.936Z,100914.53
2023-01-07T19:16:30.983Z,100918.13
2023-01-07T19:18:59.307Z,100919.91
2023-01-07T19:21:28.751Z,100915.91
2023-01-07T19:23:57.231Z,100915.05
2023-01-07T19:26:26.662Z,100914.23
2023-01-07T19:28:54.716Z,100915.27
2023-01-07T19:31:22.840Z,100909.34
2023-01-07T19:33:51.137Z,100909.28
2023-01-07T19:36:19.070Z,100905.23
2023-01-07T19:38:48.837Z,100899.70
2023-01-07T19:41:20.071Z,100894.70
2023-01-07T19:43:48.888Z,100894.24
2023-01-07T19:46:17.030Z,100893.14
2023-01-07T19:48:47.419Z,100890.36
2023-01-07T19:51:15.727Z,100888.83
2023-01-07T19:53:43.803Z,100890.29
2023-01-07T19:56:12.846Z,100891.02
2023-01-07T19:58:42.126Z,100878.84
2023-01-07T20:01:16.173Z,100891.14
2023-01-07T20:03:45.689Z,100891.40
2023-01-07T20:06:17.047Z,100893.92
2023-01-07T20:08:45.514Z,100891.55
2023-01-07T20:11:14.106Z,100888.24
2023-01-07T20:13:45.942Z,100887.89
2023-01-07T20:16:21.951Z,100885.11
2023-01-07T20:18:52.795Z,100880.38
2023-01-07T20:21:25.424Z,100880.19
2023-01-07T20:23:55.004Z,100877.73
2023-01-07T20:26:25.985Z,100872.23
2023-01-07T20:28:54.549Z,100867.52
2023-01-07T20:31:24.077Z,100867.95
2023-01-07T20:33:55.683Z,100869.10
2023-01-07T20:36:26.699Z,100869.44
2023-01-07T20:38:55.107Z,100866.40
2023-01-07T20:41:26.339Z,100865.30
2023-01-07T20:43:59.934Z,100865.80
2023-01-07T20:46:30.266Z,100862.95
2023-01-07T20:48:58.460Z,100862.20
2023-01-07T20:51:26.978Z,100866.19
2023-01-07T20:53:55.011Z,100865.12
2023-01-07T20:56:24.163Z,100864.83
2023-01-07T20:58:52.301Z,100858.69
2023-01-07T21:01:21.842Z,100856.98
2023-01-07T21:03:50.534Z,100856.36
2023-01-07T21:06:20.136Z,100855.81
2023-01-07T21:08:49.483Z,100855.08
2023-01-07T21:11:20.894Z,100855.42
2023-01-07T21:13:50.099Z,100853.35
2023-01-07T21:16:19.052Z,100851.06
2023-01-07T21:18:47.228Z,100859.48
2023-01-07T21:21:21.133Z,100857.89
2023-01-07T21:23:49.585Z,100853.01
2023-01-07T21:26:18.788Z,100800.88
2023-01-07T21:28:47.035Z,100857.20
2023-01-07T21:31:16.518Z,100853.40
2023-01-07T21:33:44.957Z,100843.88
2023-01-07T21:36:17.156Z,100853.59
2023-01-07T21:38:46.691Z,100852.20
2023-01-07T21:41:16.468Z,100850.33
2023-01-07T21:43:45.321Z,100851.05
2023-01-07T21:46:13.736Z,100840.52
2023-01-07T21:48:46.548Z,100850.26
2023-01-07T21:51:20.300Z,100845.34
2023-01-07T21:53:48.356Z,100847.25
2023-01-07T21:56:17.848Z,100846.55
2023-01-07T21:58:49.726Z,100843.23
2023-01-07T22:01:19.119Z,100841.80
2023-01-07T22:03:48.978Z,100846.52
2023-01-07T22:06:22.825Z,100843.52
2023-01-07T22:08:55.549Z,100842.67
2023-01-07T22:11:23.965Z,100844.05
2023-01-07T22:13:53.790Z,100842.45
2023-01-07T22:16:24.570Z,100837.90
2023-01-07T22:18:53.084Z,100835.95
2023-01-07T22:21:22.390Z,100836.46
2023-01-07T22:23:51.005Z,100830.77
2023-01-07T22:26:20.544Z,100837.20
2023-01-07T22:28:53.236Z,100839.51
2023-01-07T22:31:23.919Z,100837.27
2023-01-07T22:33:52.887Z,100836.05
2023-01-07T22:36:34.952Z,100839.42
2023-01-07T22:39:11.431Z,100837.86
2023-01-07T22:41:39.846Z,100836.54
2023-01-07T22:44:15.014Z,100830.94
2023-01-07T22:46:46.927Z,100836.54
2023-01-07T22:49:19.814Z,100836.89
2023-01-07T22:51:52.200Z,100834.48
2023-01-07T22:54:21.470Z,100832.64
2023-01-07T22:56:50.298Z,100830.79
2023-01-07T22:59:18.281Z,100832.39
2023-01-07T23:01:46.150Z,100831.73
2023-01-07T23:04:14.241Z,100831.24
2023-01-07T23:06:42.234Z,100825.08
2023-01-07T23:09:10.118Z,100822.27
2023-01-07T23:11:51.984Z,100813.95
2023-01-07T23:14:22.674Z,100817.78
2023-01-07T23:16:51.787Z,100810.70
2023-01-07T23:19:21.085Z,100807.44
2023-01-07T23:21:51.923Z,100808.34
2023-01-07T23:24:23.853Z,100809.06
2023-01-07T23:26:53.579Z,100807.38
2023-01-07T23:29:21.773Z,100807.95
2023-01-07T23:31:49.878Z,100804.52
2023-01-07T23:34:19.467Z,100803.52
2023-01-07T23:36:47.434Z,100802.17
2023-01-07T23:39:15.586Z,100801.83
2023-01-07T23:41:43.575Z,100799.79
2023-01-07T23:44:11.431Z,100798.11
2023-01-07T23:46:39.551Z,100790.14
2023-01-07T23:49:07.544Z,100792.48
2023-01-07T23:51:35.837Z,100788.38
2023-01-07T23:54:04.055Z,100786.41
2023-01-07T23:56:32.577Z,100781.61
2023-01-07T23:59:02.831Z,100775.77
